createdAt,value
2019-03-31T00:00:50.072Z,7.10
2019-03-31T00:03:18.211Z,7.20
2019-03-31T00:05:47.283Z,7.20
2019-03-31T00:08:15.999Z,7.20
2019-03-31T00:10:45.161Z,7.20
2019-03-31T00:13:13.969Z,7.20
2019-03-31T00:15:42.991Z,7.30
2019-03-31T00:18:11.882Z,7.20
2019-03-31T00:20:40.800Z,7.20
2019-03-31T00:23:09.500Z,7.30
2019-03-31T00:25:39.911Z,7.30
2019-03-31T00:28:08.829Z,7.20
2019-03-31T00:30:37.622Z,7.20
2019-03-31T00:33:06.829Z,7.10
2019-03-31T00:35:35.640Z,7.00
2019-03-31T00:38:05.941Z,7.10
2019-03-31T00:40:34.971Z,7.10
2019-03-31T00:43:05.054Z,7.10
2019-03-31T00:45:33.943Z,7.10
2019-03-31T00:48:02.981Z,7.20
2019-03-31T00:50:31.990Z,7.20
2019-03-31T00:53:00.990Z,7.20
2019-03-31T00:55:29.851Z,7.20
2019-03-31T00:57:58.900Z,7.20
2019-03-31T01:00:47.602Z,7.30
2019-03-31T01:03:16.543Z,7.30
2019-03-31T01:05:45.482Z,7.20
2019-03-31T01:08:14.820Z,7.20
2019-03-31T01:10:43.686Z,7.20
2019-03-31T01:13:12.521Z,7.10
2019-03-31T01:15:41.351Z,7.10
2019-03-31T01:18:10.580Z,7.00
2019-03-31T01:20:39.390Z,6.90
2019-03-31T01:23:08.730Z,6.80
2019-03-31T01:25:37.632Z,6.70
2019-03-31T01:28:06.767Z,6.70
2019-03-31T01:30:35.613Z,6.80
2019-03-31T01:33:05.336Z,6.80
2019-03-31T01:35:34.390Z,6.80
2019-03-31T01:38:03.904Z,6.80
2019-03-31T01:40:32.921Z,6.70
2019-03-31T01:43:01.711Z,6.60
2019-03-31T01:45:30.590Z,6.50
2019-03-31T01:48:01.010Z,6.60
2019-03-31T01:50:30.342Z,6.50
2019-03-31T01:52:59.410Z,6.50
2019-03-31T01:55:28.344Z,6.60
2019-03-31T01:57:57.440Z,6.50
2019-03-31T02:00:41.401Z,6.60
2019-03-31T02:03:10.202Z,6.60
2019-03-31T02:05:39.080Z,6.60
2019-03-31T02:08:08.061Z,6.60
2019-03-31T02:10:36.931Z,6.50
2019-03-31T02:13:06.140Z,6.50
2019-03-31T02:15:34.990Z,6.60
2019-03-31T02:18:04.695Z,6.70
2019-03-31T02:20:33.630Z,6.60
2019-03-31T02:23:02.471Z,6.70
2019-03-31T02:25:31.571Z,6.70
2019-03-31T02:28:00.491Z,6.70
2019-03-31T02:30:29.394Z,6.60
2019-03-31T02:32:58.190Z,6.60
2019-03-31T02:35:27.381Z,6.60
2019-03-31T02:37:56.471Z,6.60
2019-03-31T02:40:25.361Z,6.60
2019-03-31T02:42:54.350Z,6.60
2019-03-31T02:45:23.350Z,6.70
2019-03-31T02:47:52.238Z,6.60
2019-03-31T02:50:47.752Z,6.60
2019-03-31T02:53:18.184Z,6.50
2019-03-31T02:55:47.132Z,6.50
2019-03-31T02:58:16.366Z,6.40
2019-03-31T03:03:27.734Z,6.40
2019-03-31T03:05:57.402Z,6.50
2019-03-31T03:08:26.270Z,6.60
2019-03-31T03:10:55.151Z,6.70
2019-03-31T03:13:24.709Z,6.70
2019-03-31T03:15:56.730Z,6.60
2019-03-31T03:18:25.603Z,6.50
2019-03-31T03:20:54.391Z,6.40
2019-03-31T03:23:23.162Z,6.40
2019-03-31T03:25:56.177Z,6.40
2019-03-31T03:28:22.620Z,6.50
2019-03-31T03:30:51.450Z,6.50
2019-03-31T03:33:20.530Z,6.60
2019-03-31T03:35:50.006Z,6.60
2019-03-31T03:38:19.005Z,6.60
2019-03-31T03:40:48.113Z,6.60
2019-03-31T03:43:16.905Z,6.60
2019-03-31T03:45:45.802Z,6.70
2019-03-31T03:48:14.622Z,6.70
2019-03-31T03:50:43.563Z,6.70
2019-03-31T03:53:12.468Z,6.60
2019-03-31T03:55:41.474Z,6.50
2019-03-31T03:58:10.563Z,6.60
2019-03-31T04:00:39.287Z,6.60
2019-03-31T04:03:08.024Z,6.60
2019-03-31T04:05:36.892Z,6.70
2019-03-31T04:08:06.326Z,6.80
2019-03-31T04:10:47.348Z,6.80
2019-03-31T04:13:16.325Z,6.90
2019-03-31T04:15:45.315Z,6.80
2019-03-31T04:18:14.263Z,6.80
2019-03-31T04:20:43.264Z,6.80
2019-03-31T04:23:12.209Z,6.70
2019-03-31T04:25:41.113Z,6.70
2019-03-31T04:28:09.953Z,6.60
2019-03-31T04:30:38.852Z,6.60
2019-03-31T04:33:07.486Z,6.60
2019-03-31T04:35:36.312Z,6.50
2019-03-31T04:38:05.718Z,6.50
2019-03-31T04:40:34.590Z,6.50
2019-03-31T04:43:04.491Z,6.50
2019-03-31T04:45:33.351Z,6.50
2019-03-31T04:48:02.938Z,6.50
2019-03-31T04:50:31.683Z,6.50
2019-03-31T04:53:00.531Z,6.50
2019-03-31T04:55:29.570Z,6.50
2019-03-31T04:57:58.532Z,6.60
2019-03-31T05:00:27.475Z,6.60
2019-03-31T05:02:56.300Z,6.60
2019-03-31T05:05:25.053Z,6.50
2019-03-31T05:07:53.910Z,6.50
2019-03-31T05:10:22.770Z,6.50
2019-03-31T05:12:51.511Z,6.40
2019-03-31T05:15:20.403Z,6.50
2019-03-31T05:17:49.422Z,6.50
2019-03-31T05:20:18.374Z,6.60
2019-03-31T05:22:47.400Z,6.70
2019-03-31T05:25:16.401Z,6.70
2019-03-31T05:27:45.330Z,6.70
2019-03-31T05:30:14.062Z,6.80
2019-03-31T05:32:42.901Z,6.80
2019-03-31T05:35:11.680Z,6.80
2019-03-31T05:37:50.883Z,6.90
2019-03-31T05:40:10.952Z,6.90
2019-03-31T05:42:39.881Z,7.00
2019-03-31T05:45:08.871Z,6.90
2019-03-31T05:47:37.773Z,6.90
2019-03-31T05:50:06.966Z,6.80
2019-03-31T05:52:35.790Z,6.70
2019-03-31T05:55:06.402Z,6.70
2019-03-31T05:57:35.383Z,6.70
2019-03-31T06:00:05.975Z,6.90
2019-03-31T06:02:33.971Z,6.80
2019-03-31T06:05:03.315Z,6.80
2019-03-31T06:07:32.238Z,6.90
2019-03-31T06:10:01.151Z,6.90
2019-03-31T06:12:29.977Z,7.00
2019-03-31T06:14:58.751Z,7.00
2019-03-31T06:17:27.671Z,7.00
2019-03-31T06:19:56.403Z,7.10
2019-03-31T06:22:25.371Z,7.10
2019-03-31T06:24:54.401Z,7.20
2019-03-31T06:27:23.421Z,7.20
2019-03-31T06:29:52.232Z,7.30
2019-03-31T06:32:21.581Z,7.40
2019-03-31T06:34:50.414Z,7.40
2019-03-31T06:37:19.660Z,7.50
2019-03-31T06:39:48.731Z,7.40
2019-03-31T06:42:17.720Z,7.50
2019-03-31T06:44:46.584Z,7.40
2019-03-31T06:47:15.551Z,7.40
2019-03-31T06:49:44.385Z,7.50
2019-03-31T06:52:13.211Z,7.50
2019-03-31T06:54:42.042Z,7.50
2019-03-31T06:57:10.792Z,7.50
2019-03-31T06:59:39.707Z,7.50
2019-03-31T07:02:08.490Z,7.60
2019-03-31T07:04:37.451Z,7.50
2019-03-31T07:07:06.244Z,7.60
2019-03-31T07:09:34.981Z,7.60
2019-03-31T07:12:04.670Z,7.60
2019-03-31T07:14:33.490Z,7.60
2019-03-31T07:17:02.692Z,7.60
2019-03-31T07:19:31.490Z,7.60
2019-03-31T07:22:00.470Z,7.70
2019-03-31T07:24:29.333Z,7.60
2019-03-31T07:26:58.202Z,7.60
2019-03-31T07:29:27.050Z,7.70
2019-03-31T07:31:56.001Z,7.70
2019-03-31T07:34:24.902Z,7.80
2019-03-31T07:36:53.683Z,7.80
2019-03-31T07:39:22.700Z,7.90
2019-03-31T07:41:51.613Z,7.90
2019-03-31T07:44:20.843Z,7.90
2019-03-31T07:46:49.771Z,8.00
2019-03-31T07:49:19.001Z,8.10
2019-03-31T07:51:47.981Z,8.20
2019-03-31T07:54:16.930Z,8.30
2019-03-31T07:56:45.836Z,8.50
2019-03-31T07:59:14.686Z,8.60
2019-03-31T08:01:43.461Z,8.70
2019-03-31T08:04:12.251Z,8.80
2019-03-31T08:06:41.061Z,8.90
2019-03-31T08:09:09.833Z,9.00
2019-03-31T08:11:38.841Z,9.20
2019-03-31T08:14:07.646Z,9.30
2019-03-31T08:16:36.630Z,9.50
2019-03-31T08:19:05.976Z,9.70
2019-03-31T08:21:34.860Z,10.00
2019-03-31T08:24:06.696Z,10.30
2019-03-31T08:26:35.510Z,10.70
2019-03-31T08:29:05.479Z,11.20
2019-03-31T08:31:34.470Z,11.80
2019-03-31T08:34:04.730Z,12.30
2019-03-31T08:36:35.331Z,12.70
2019-03-31T08:39:06.381Z,13.10
2019-03-31T08:41:35.381Z,13.60
2019-03-31T08:44:05.295Z,13.90
2019-03-31T08:46:34.151Z,14.10
2019-03-31T08:49:03.004Z,14.30
2019-03-31T08:51:31.900Z,14.50
2019-03-31T08:54:00.842Z,14.80
2019-03-31T08:56:29.680Z,15.20
2019-03-31T08:58:58.720Z,15.50
2019-03-31T09:01:27.660Z,15.60
2019-03-31T09:03:56.600Z,15.60
2019-03-31T09:06:25.511Z,15.10
2019-03-31T09:08:54.541Z,15.40
2019-03-31T09:11:23.674Z,15.50
2019-03-31T09:13:52.671Z,15.70
2019-03-31T09:16:21.772Z,15.70
2019-03-31T09:18:50.870Z,16.00
2019-03-31T09:21:19.818Z,16.10
2019-03-31T09:23:48.732Z,16.00
2019-03-31T09:26:17.543Z,16.30
2019-03-31T09:28:46.291Z,16.50
2019-03-31T09:31:15.271Z,16.20
2019-03-31T09:33:44.322Z,16.60
2019-03-31T09:36:16.404Z,16.90
2019-03-31T09:38:43.040Z,17.00
2019-03-31T09:41:11.890Z,16.60
2019-03-31T09:43:41.111Z,16.50
2019-03-31T09:46:10.267Z,16.90
2019-03-31T09:48:39.238Z,16.90
2019-03-31T09:51:07.881Z,17.20
2019-03-31T09:53:36.790Z,17.30
2019-03-31T09:56:06.221Z,17.40
2019-03-31T09:58:36.134Z,17.60
2019-03-31T10:01:08.029Z,17.80
2019-03-31T10:03:36.798Z,17.70
2019-03-31T10:06:10.886Z,17.80
2019-03-31T10:08:36.706Z,17.50
2019-03-31T10:11:06.176Z,17.30
2019-03-31T10:13:35.210Z,17.50
2019-03-31T10:16:05.084Z,17.30
2019-03-31T10:18:33.941Z,17.50
2019-03-31T10:21:03.112Z,17.90
2019-03-31T10:23:32.354Z,18.10
2019-03-31T10:26:01.271Z,18.00
2019-03-31T10:28:30.434Z,18.20
2019-03-31T10:30:59.611Z,18.20
2019-03-31T10:33:28.491Z,18.70
2019-03-31T10:35:57.300Z,18.50
2019-03-31T10:38:26.122Z,18.40
2019-03-31T10:40:54.932Z,18.60
2019-03-31T10:43:23.810Z,18.90
2019-03-31T10:45:52.660Z,19.40
2019-03-31T10:48:21.700Z,19.80
2019-03-31T10:50:50.554Z,19.50
2019-03-31T10:53:19.500Z,19.00
2019-03-31T10:55:48.481Z,19.10
2019-03-31T10:58:17.371Z,19.00
2019-03-31T11:00:46.311Z,18.70
2019-03-31T11:03:15.131Z,18.20
2019-03-31T11:05:44.021Z,18.40
2019-03-31T11:08:12.901Z,19.00
2019-03-31T11:10:42.150Z,19.10
2019-03-31T11:13:11.090Z,19.40
2019-03-31T11:15:39.879Z,19.20
2019-03-31T11:18:08.621Z,19.30
2019-03-31T11:20:37.633Z,19.50
2019-03-31T11:23:08.311Z,19.90
2019-03-31T11:25:36.491Z,19.40
2019-03-31T11:28:05.658Z,19.50
2019-03-31T11:30:35.751Z,19.10
2019-03-31T11:33:07.416Z,19.00
2019-03-31T11:35:35.906Z,19.10
2019-03-31T11:38:05.345Z,19.20
2019-03-31T11:40:34.283Z,19.40
2019-03-31T11:43:04.028Z,19.40
2019-03-31T11:45:32.971Z,19.30
2019-03-31T11:48:01.941Z,19.50
2019-03-31T11:50:30.920Z,19.50
2019-03-31T11:52:59.945Z,19.50
2019-03-31T11:55:29.149Z,19.90
2019-03-31T11:57:58.440Z,20.00
2019-03-31T12:00:28.860Z,20.00
2019-03-31T12:02:57.890Z,20.00
2019-03-31T12:05:27.380Z,19.40
2019-03-31T12:07:56.360Z,19.60
2019-03-31T12:10:25.232Z,19.60
2019-03-31T12:12:54.200Z,19.40
2019-03-31T12:15:23.141Z,19.00
2019-03-31T12:17:52.433Z,19.30
2019-03-31T12:20:21.444Z,19.40
2019-03-31T12:22:50.529Z,19.70
2019-03-31T12:25:20.049Z,19.70
2019-03-31T12:27:49.422Z,19.70
2019-03-31T12:30:21.370Z,19.70
2019-03-31T12:32:50.331Z,19.50
2019-03-31T12:35:19.291Z,19.40
2019-03-31T12:37:48.410Z,19.60
2019-03-31T12:40:32.170Z,19.60
2019-03-31T12:43:01.182Z,19.40
2019-03-31T12:45:30.030Z,19.30
2019-03-31T12:48:01.256Z,19.40
2019-03-31T12:50:28.910Z,19.40
2019-03-31T12:52:57.941Z,19.50
2019-03-31T12:55:26.780Z,19.60
2019-03-31T12:57:55.669Z,19.60
2019-03-31T13:00:24.590Z,19.90
2019-03-31T13:02:53.721Z,19.70
2019-03-31T13:05:22.821Z,19.60
2019-03-31T13:07:56.693Z,19.70
2019-03-31T13:10:21.370Z,19.70
2019-03-31T13:12:50.274Z,19.30
2019-03-31T13:15:19.059Z,19.10
2019-03-31T13:17:48.249Z,19.00
2019-03-31T13:20:18.261Z,18.70
2019-03-31T13:22:47.273Z,18.70
2019-03-31T13:25:16.080Z,18.90
2019-03-31T13:27:44.951Z,18.80
2019-03-31T13:30:13.791Z,19.00
2019-03-31T13:32:42.670Z,19.00
2019-03-31T13:35:11.461Z,19.10
2019-03-31T13:37:41.030Z,19.20
2019-03-31T13:40:10.111Z,19.20
2019-03-31T13:42:39.080Z,19.20
2019-03-31T13:45:07.930Z,19.10
2019-03-31T13:47:36.962Z,19.00
2019-03-31T13:50:07.814Z,19.00
2019-03-31T13:52:36.742Z,18.80
2019-03-31T13:55:08.850Z,18.80
2019-03-31T13:57:39.796Z,19.00
2019-03-31T14:00:09.007Z,19.00
2019-03-31T14:02:38.160Z,18.90
2019-03-31T14:05:07.609Z,19.00
2019-03-31T14:07:36.511Z,19.00
2019-03-31T14:10:06.704Z,19.10
2019-03-31T14:12:35.520Z,19.20
2019-03-31T14:15:18.373Z,19.40
2019-03-31T14:17:37.127Z,19.20
2019-03-31T14:20:07.381Z,19.20
2019-03-31T14:22:36.181Z,18.90
2019-03-31T14:25:06.389Z,18.70
2019-03-31T14:27:35.199Z,18.70
2019-03-31T14:30:06.210Z,18.80
2019-03-31T14:32:35.302Z,18.80
2019-03-31T14:35:05.267Z,18.60
2019-03-31T14:37:34.102Z,18.60
2019-03-31T14:40:03.261Z,18.70
2019-03-31T14:42:32.960Z,18.50
2019-03-31T14:45:01.921Z,18.60
2019-03-31T14:47:30.821Z,18.60
2019-03-31T14:49:59.753Z,18.50
2019-03-31T14:52:28.590Z,18.50
2019-03-31T14:54:57.482Z,18.50
2019-03-31T14:57:26.670Z,18.50
2019-03-31T14:59:55.704Z,18.60
2019-03-31T15:02:24.694Z,18.70
2019-03-31T15:04:53.511Z,18.70
2019-03-31T15:07:22.332Z,18.50
2019-03-31T15:09:51.162Z,18.50
2019-03-31T15:12:20.033Z,18.50
2019-03-31T15:14:49.031Z,18.40
2019-03-31T15:17:17.922Z,18.40
2019-03-31T15:19:47.052Z,18.30
2019-03-31T15:22:15.852Z,18.10
2019-03-31T15:24:44.761Z,17.90
2019-03-31T15:27:14.370Z,18.00
2019-03-31T15:29:43.961Z,18.10
2019-03-31T15:32:12.811Z,18.00
2019-03-31T15:34:41.680Z,17.90
2019-03-31T15:37:10.401Z,17.90
2019-03-31T15:39:39.441Z,17.90
2019-03-31T15:42:08.480Z,17.70
2019-03-31T15:44:37.271Z,17.60
2019-03-31T15:47:06.815Z,17.60
2019-03-31T15:49:35.671Z,17.50
2019-03-31T15:52:08.687Z,17.30
2019-03-31T15:54:36.012Z,17.30
2019-03-31T15:57:05.679Z,17.20
2019-03-31T15:59:34.702Z,17.20
2019-03-31T16:02:04.537Z,17.10
2019-03-31T16:04:33.771Z,17.10
2019-03-31T16:07:03.851Z,17.00
2019-03-31T16:09:33.044Z,17.10
2019-03-31T16:12:01.891Z,17.10
2019-03-31T16:14:30.760Z,17.00
2019-03-31T16:16:59.673Z,16.90
2019-03-31T16:19:28.541Z,16.80
2019-03-31T16:21:57.431Z,16.70
2019-03-31T16:24:34.143Z,16.70
2019-03-31T16:27:03.621Z,16.60
2019-03-31T16:29:33.681Z,16.50
2019-03-31T16:32:03.021Z,16.40
2019-03-31T16:34:32.511Z,16.30
2019-03-31T16:37:01.561Z,16.30
2019-03-31T16:39:37.512Z,16.20
2019-03-31T16:42:01.291Z,16.00
2019-03-31T16:44:30.263Z,15.80
2019-03-31T16:46:58.991Z,15.60
2019-03-31T16:49:27.791Z,15.50
2019-03-31T16:51:57.061Z,15.20
2019-03-31T16:54:25.932Z,15.10
2019-03-31T16:56:55.411Z,14.90
2019-03-31T16:59:24.873Z,14.70
2019-03-31T17:01:53.592Z,14.50
2019-03-31T17:04:22.513Z,14.30
2019-03-31T17:06:51.371Z,14.10
2019-03-31T17:09:20.311Z,13.90
2019-03-31T17:11:49.440Z,13.70
2019-03-31T17:14:18.221Z,13.60
2019-03-31T17:16:47.422Z,13.50
2019-03-31T17:19:16.286Z,13.50
2019-03-31T17:21:45.600Z,13.40
2019-03-31T17:24:14.462Z,13.40
2019-03-31T17:26:43.361Z,13.30
2019-03-31T17:29:12.551Z,13.20
2019-03-31T17:31:41.281Z,13.10
2019-03-31T17:34:10.291Z,13.10
2019-03-31T17:36:39.091Z,13.00
2019-03-31T17:39:08.740Z,12.80
2019-03-31T17:41:37.600Z,12.70
2019-03-31T17:44:07.148Z,12.60
2019-03-31T17:46:36.181Z,12.50
2019-03-31T17:49:05.596Z,12.40
2019-03-31T17:51:34.491Z,12.40
2019-03-31T17:54:06.202Z,12.30
2019-03-31T17:56:34.721Z,12.30
2019-03-31T17:59:08.649Z,12.20
2019-03-31T18:01:35.631Z,12.20
2019-03-31T18:04:05.283Z,12.10
2019-03-31T18:06:34.681Z,12.00
2019-03-31T18:09:05.608Z,12.00
2019-03-31T18:11:34.491Z,11.90
2019-03-31T18:14:06.857Z,11.90
2019-03-31T18:16:34.730Z,11.90
2019-03-31T18:19:04.661Z,11.90
2019-03-31T18:21:33.510Z,11.90
2019-03-31T18:24:02.753Z,11.80
2019-03-31T18:26:31.771Z,11.70
2019-03-31T18:29:00.661Z,11.80
2019-03-31T18:31:29.501Z,11.70
2019-03-31T18:33:58.477Z,11.70
2019-03-31T18:36:36.317Z,11.70
2019-03-31T18:38:57.981Z,11.70
2019-03-31T18:41:27.451Z,11.60
2019-03-31T18:43:56.640Z,11.60
2019-03-31T18:46:25.590Z,11.50
2019-03-31T18:48:54.461Z,11.60
2019-03-31T18:51:23.450Z,11.50
2019-03-31T18:53:56.752Z,11.60
2019-03-31T18:56:42.161Z,11.70
2019-03-31T18:59:19.180Z,11.70
2019-03-31T19:01:49.691Z,11.80
2019-03-31T19:04:29.610Z,11.90
2019-03-31T19:07:08.730Z,11.90
2019-03-31T19:09:39.460Z,11.90
2019-03-31T19:12:15.321Z,12.00
2019-03-31T19:14:55.271Z,12.00
2019-03-31T19:17:26.191Z,12.00
2019-03-31T19:20:13.111Z,12.00
2019-03-31T19:22:59.111Z,12.00
2019-03-31T19:25:44.960Z,12.10
2019-03-31T19:28:18.380Z,12.00
2019-03-31T19:31:05.545Z,12.10
2019-03-31T19:33:38.871Z,12.20
2019-03-31T19:36:24.641Z,12.20
2019-03-31T19:39:11.291Z,12.20
2019-03-31T19:41:58.291Z,12.10
2019-03-31T19:44:28.761Z,12.10
2019-03-31T19:46:59.160Z,12.20
2019-03-31T19:49:29.730Z,12.20
2019-03-31T19:52:06.752Z,12.20
2019-03-31T19:54:43.463Z,12.20
2019-03-31T19:57:30.181Z,12.30
2019-03-31T20:00:06.558Z,12.20
2019-03-31T20:02:40.051Z,12.10
2019-03-31T20:05:16.225Z,12.10
2019-03-31T20:07:55.870Z,12.00
2019-03-31T20:10:26.373Z,11.90
2019-03-31T20:13:12.991Z,11.90
2019-03-31T20:15:46.340Z,11.90
2019-03-31T20:18:19.711Z,11.90
2019-03-31T20:20:55.590Z,11.80
2019-03-31T20:23:28.841Z,11.70
2019-03-31T20:26:10.832Z,11.60
2019-03-31T20:28:53.831Z,11.50
2019-03-31T20:31:24.322Z,11.50
2019-03-31T20:34:10.801Z,11.40
2019-03-31T20:36:43.951Z,11.30
2019-03-31T20:39:19.947Z,11.30
2019-03-31T20:41:55.822Z,11.20
2019-03-31T20:44:24.718Z,11.20
2019-03-31T20:46:53.730Z,11.10
2019-03-31T20:49:22.630Z,11.20
2019-03-31T20:51:51.460Z,11.20
2019-03-31T20:54:20.402Z,11.30
2019-03-31T20:56:49.330Z,11.40
2019-03-31T20:59:18.141Z,11.40
2019-03-31T21:01:47.191Z,11.30
2019-03-31T21:04:16.114Z,11.30
2019-03-31T21:06:45.071Z,11.30
2019-03-31T21:09:13.841Z,11.30
2019-03-31T21:11:42.711Z,11.20
2019-03-31T21:14:12.141Z,11.20
2019-03-31T21:16:41.251Z,11.20
2019-03-31T21:19:10.101Z,11.30
2019-03-31T21:21:39.310Z,11.30
2019-03-31T21:24:07.852Z,11.20
2019-03-31T21:26:36.980Z,11.20
2019-03-31T21:29:06.693Z,11.20
2019-03-31T21:31:35.540Z,11.20
2019-03-31T21:34:05.437Z,11.20
2019-03-31T21:36:34.400Z,11.20
2019-03-31T21:39:04.989Z,11.20
2019-03-31T21:41:33.881Z,11.10
2019-03-31T21:44:03.224Z,11.10
2019-03-31T21:46:33.220Z,11.10
2019-03-31T21:49:04.277Z,11.00
2019-03-31T21:51:33.273Z,10.90
2019-03-31T21:54:02.130Z,10.90
2019-03-31T21:56:31.051Z,10.80
2019-03-31T21:59:00.007Z,10.80
2019-03-31T22:01:28.802Z,10.70
2019-03-31T22:03:57.791Z,10.60
2019-03-31T22:06:26.600Z,10.60
2019-03-31T22:08:56.070Z,10.70
2019-03-31T22:11:25.014Z,10.60
2019-03-31T22:13:53.901Z,10.70
2019-03-31T22:16:22.680Z,10.60
2019-03-31T22:18:51.485Z,10.60
2019-03-31T22:21:20.280Z,10.50
2019-03-31T22:23:57.864Z,10.40
2019-03-31T22:26:19.957Z,10.30
2019-03-31T22:28:49.096Z,10.30
2019-03-31T22:31:18.810Z,10.20
2019-03-31T22:33:47.870Z,10.10
2019-03-31T22:36:23.690Z,10.20
2019-03-31T22:38:53.440Z,10.10
2019-03-31T22:41:22.711Z,10.10
2019-03-31T22:43:52.136Z,10.10
2019-03-31T22:46:20.910Z,10.00
2019-03-31T22:48:49.873Z,9.90
2019-03-31T22:51:18.790Z,9.90
2019-03-31T22:53:47.671Z,9.80
2019-03-31T22:56:16.421Z,9.80
2019-03-31T22:58:45.220Z,9.80
2019-03-31T23:01:14.533Z,9.80
2019-03-31T23:03:43.641Z,9.80
2019-03-31T23:06:12.411Z,9.80
2019-03-31T23:08:41.471Z,9.80
2019-03-31T23:11:10.482Z,9.70
2019-03-31T23:13:39.971Z,9.70
2019-03-31T23:16:08.630Z,9.70
2019-03-31T23:18:37.922Z,9.60
2019-03-31T23:21:06.853Z,9.50
2019-03-31T23:23:35.756Z,9.50
2019-03-31T23:26:05.532Z,9.50
2019-03-31T23:28:36.111Z,9.50
2019-03-31T23:31:05.449Z,9.40
2019-03-31T23:33:34.431Z,9.40
2019-03-31T23:36:03.795Z,9.40
2019-03-31T23:38:32.950Z,9.40
2019-03-31T23:41:01.885Z,9.40
2019-03-31T23:43:30.670Z,9.30
2019-03-31T23:45:59.601Z,9.30
2019-03-31T23:48:28.475Z,9.20
2019-03-31T23:50:57.281Z,9.20
2019-03-31T23:53:26.121Z,9.20
2019-03-31T23:55:55.070Z,9.30
2019-03-31T23:58:23.811Z,9.20
